Aeroporto :
LOGIN :

Iscrizione | Disclaimer

   EN    FR    IT 

 










Sommario :    VFR   VFR Marginale   IFR   IFR Intensivo   IFR Molto Intensivo
Visibilità : 
Base nubi : 
>= 8 km
>= 3000ft
5 / 8 km
1000 / 3000 ft
1500m / 5 km
500 / 1000 ft
800 / 1500m
200 / 500 ft
< 800m
< 200 ft
Simboli :   Temporali  Nebbia  Neve Forte  Precipitazioni Forti  Vento > 20 kt
SIGMETs :   Varie  Temporali  Ghiacco  Turbolenza  Onda orograficha  Ceneri Vulcaniche






- Altitudine del aeroporto : 1895 ft


LSMM - Meiringen

ULTIMO METAR :
  • 222020Z AUTO 09004KT 060V120 9999NDV NCD 02/00 Q1032 RMK

METARs OBSOLETI :
  • 221950Z AUTO 09004KT 9999NDV FEW170 03/00 Q1032 RMK
  • 221920Z AUTO VRB01KT 9999NDV FEW180 04/M00 Q1031 RMK
  • 221850Z AUTO VRB02KT 9999NDV FEW230 05/00 Q1031 RMK
  • 221820Z AUTO VRB01KT 9999NDV FEW230 05/00 Q1030 RMK
  • 221750Z AUTO 13003KT 080V170 9999NDV NCD 05/00 Q1030 RMK

Previsioni scadute.



MetMap, La meteo Aeronautica in un colpo d'occhio ! - Copyright ORBIFLY Dicembre 2007 - Disclaimer

ORBIFLY MET'MAP TEAM :

Programmazione e sviluppo : Alexandra Zaïnal
Concezione : Baudouin d'Aumeries
Aiuto per la programmazione : Marc-Olivier Méhu
Supporto tecnico e logistico : Manuel Goepfert
Aiuto per la traduzione : Arnaldo La Scala

Contatto : metmap@orbifly.com




FONTI E CREDITI :

   NOAA